createdAt,value
2023-04-07T00:01:50.589Z,11.33
2023-04-07T00:04:57.636Z,17.33
2023-04-07T00:08:01.389Z,24.00
2023-04-07T00:11:04.812Z,22.67
2023-04-07T00:14:08.177Z,16.33
2023-04-07T00:17:11.554Z,25.00
2023-04-07T00:20:16.351Z,10.67
2023-04-07T00:23:19.993Z,14.33
2023-04-07T00:26:23.415Z,14.67
2023-04-07T00:29:27.261Z,21.00
2023-04-07T00:32:30.742Z,10.33
2023-04-07T00:35:38.645Z,18.67
2023-04-07T00:38:42.042Z,18.33
2023-04-07T00:41:45.376Z,16.67
2023-04-07T00:44:48.820Z,17.33
2023-04-07T00:47:52.326Z,0.00
2023-04-07T00:50:57.144Z,19.00
2023-04-07T00:54:01.537Z,19.67
2023-04-07T00:57:05.462Z,19.67
2023-04-07T01:00:11.089Z,11.33
2023-04-07T01:03:20.743Z,12.00
2023-04-07T01:06:29.777Z,17.33
2023-04-07T01:09:44.531Z,15.67
2023-04-07T01:12:55.980Z,20.00
2023-04-07T01:16:04.892Z,24.00
2023-04-07T01:19:17.580Z,20.33
2023-04-07T01:22:35.340Z,14.67
2023-04-07T01:26:02.239Z,11.33
2023-04-07T01:29:20.591Z,13.67
2023-04-07T01:32:27.358Z,16.33
2023-04-07T01:35:33.786Z,12.67
2023-04-07T01:38:38.086Z,12.00
2023-04-07T01:41:44.114Z,10.67
2023-04-07T01:44:49.887Z,11.33
2023-04-07T01:47:54.588Z,12.00
2023-04-07T01:50:58.764Z,8.33
2023-04-07T01:54:04.300Z,9.33
2023-04-07T01:57:07.650Z,9.67
2023-04-07T02:00:14.352Z,12.33
2023-04-07T02:03:32.323Z,6.67
2023-04-07T02:06:40.314Z,14.67
2023-04-07T02:09:45.154Z,10.00
2023-04-07T02:12:49.044Z,6.00
2023-04-07T02:15:58.295Z,16.33
2023-04-07T02:19:02.665Z,13.67
2023-04-07T02:22:07.095Z,16.00
2023-04-07T02:25:23.498Z,5.33
2023-04-07T02:28:26.934Z,10.67
2023-04-07T02:31:32.206Z,16.00
2023-04-07T02:34:37.834Z,14.33
2023-04-07T02:37:42.665Z,0.00
2023-04-07T02:40:45.936Z,7.67
2023-04-07T02:43:49.674Z,12.67
2023-04-07T02:46:54.655Z,9.33
2023-04-07T02:50:00.134Z,13.00
2023-04-07T02:53:03.615Z,10.67
2023-04-07T02:56:07.257Z,13.00
2023-04-07T02:59:10.800Z,14.33
2023-04-07T03:02:20.038Z,16.00
2023-04-07T03:05:24.217Z,7.00
2023-04-07T03:08:28.397Z,2.33
2023-04-07T03:11:32.645Z,12.67
2023-04-07T03:14:37.415Z,12.00
2023-04-07T03:17:42.795Z,13.00
2023-04-07T03:20:49.018Z,19.00
2023-04-07T03:23:53.899Z,9.00
2023-04-07T03:26:57.622Z,10.00
2023-04-07T03:30:12.747Z,11.67
2023-04-07T03:33:18.189Z,16.33
2023-04-07T03:36:21.999Z,7.00
2023-04-07T03:39:25.822Z,23.33
2023-04-07T03:42:34.206Z,12.33
2023-04-07T03:45:41.031Z,15.33
2023-04-07T03:48:46.747Z,9.00
2023-04-07T03:51:50.126Z,7.00
2023-04-07T03:54:55.307Z,6.33
2023-04-07T03:58:04.980Z,13.00
2023-04-07T04:01:11.122Z,19.67
2023-04-07T04:04:17.300Z,15.33
2023-04-07T04:07:21.504Z,16.00
2023-04-07T04:10:27.739Z,18.33
2023-04-07T04:13:32.446Z,16.67
2023-04-07T04:16:40.063Z,18.00
2023-04-07T04:19:58.945Z,13.00
2023-04-07T04:23:22.527Z,14.67
2023-04-07T04:26:30.006Z,13.67
2023-04-07T04:29:39.903Z,15.00
2023-04-07T04:32:46.622Z,12.00
2023-04-07T04:35:53.969Z,12.00
2023-04-07T04:38:58.811Z,11.33
2023-04-07T04:42:03.917Z,12.33
2023-04-07T04:45:12.159Z,12.00
2023-04-07T04:48:20.664Z,11.33
2023-04-07T04:51:26.247Z,15.33
2023-04-07T04:54:35.412Z,14.33
2023-04-07T04:57:39.751Z,14.33
2023-04-07T05:00:47.374Z,12.00
2023-04-07T05:03:51.388Z,8.33
2023-04-07T05:07:01.270Z,14.33
2023-04-07T05:10:08.088Z,15.33
2023-04-07T05:13:14.476Z,6.33
2023-04-07T05:16:18.207Z,15.33
2023-04-07T05:19:22.159Z,12.33
2023-04-07T05:22:28.554Z,12.00
2023-04-07T05:25:34.947Z,15.67
2023-04-07T05:28:41.204Z,18.67
2023-04-07T05:31:51.560Z,28.33
2023-04-07T05:34:57.586Z,28.67
2023-04-07T05:38:07.066Z,16.00
2023-04-07T05:41:10.749Z,16.00
2023-04-07T05:44:15.050Z,4.00
2023-04-07T05:47:19.873Z,3.00
2023-04-07T05:50:26.319Z,19.00
2023-04-07T05:53:31.539Z,12.67
2023-04-07T05:56:35.026Z,12.33
2023-04-07T05:59:38.931Z,4.00
2023-04-07T06:02:43.575Z,9.33
2023-04-07T06:05:53.086Z,10.33
2023-04-07T06:08:59.814Z,12.67
2023-04-07T06:12:05.290Z,16.67
2023-04-07T06:15:10.058Z,14.33
2023-04-07T06:18:14.775Z,3.00
2023-04-07T06:21:20.191Z,6.33
2023-04-07T06:24:26.434Z,11.33
2023-04-07T06:27:30.846Z,15.00
2023-04-07T06:30:35.603Z,14.67
2023-04-07T06:33:40.686Z,7.00
2023-04-07T06:36:44.674Z,12.00
2023-04-07T06:39:50.853Z,11.33
2023-04-07T06:42:54.767Z,8.33
2023-04-07T06:46:12.963Z,4.00
2023-04-07T06:49:16.939Z,15.00
2023-04-07T06:52:20.599Z,13.00
2023-04-07T06:55:34.880Z,7.67
2023-04-07T06:58:39.008Z,12.67
2023-04-07T07:01:43.932Z,13.67
2023-04-07T07:04:47.694Z,9.00
2023-04-07T07:07:57.627Z,6.00
2023-04-07T07:11:02.832Z,12.67
2023-04-07T07:14:06.484Z,3.00
2023-04-07T07:17:11.090Z,9.00
2023-04-07T07:20:14.808Z,10.67
2023-04-07T07:23:18.429Z,12.00
2023-04-07T07:26:26.409Z,7.67
2023-04-07T07:29:31.279Z,11.67
2023-04-07T07:32:34.878Z,15.00
2023-04-07T07:35:38.900Z,16.67
2023-04-07T07:38:44.262Z,12.00
2023-04-07T07:41:51.590Z,11.25
2023-04-07T07:44:55.033Z,10.50
2023-04-07T07:48:01.301Z,12.50
2023-04-07T07:51:05.323Z,3.75
2023-04-07T07:54:09.751Z,16.33
2023-04-07T07:57:14.636Z,12.00
2023-04-07T08:00:19.135Z,21.33
2023-04-07T08:03:23.018Z,13.33
2023-04-07T08:06:27.365Z,12.67
2023-04-07T08:09:32.257Z,15.33
2023-04-07T08:12:39.805Z,10.67
2023-04-07T08:15:46.312Z,5.33
2023-04-07T08:18:56.631Z,13.00
2023-04-07T08:22:03.339Z,12.75
2023-04-07T08:25:07.675Z,19.00
2023-04-07T08:28:12.596Z,12.25
2023-04-07T08:31:16.163Z,11.00
2023-04-07T08:34:21.266Z,13.50
2023-04-07T08:37:26.020Z,12.75
2023-04-07T08:40:30.072Z,24.00
2023-04-07T08:43:46.500Z,22.67
2023-04-07T08:46:51.911Z,12.50
2023-04-07T08:49:58.937Z,17.67
2023-04-07T08:53:08.008Z,16.00
2023-04-07T08:56:13.439Z,14.00
2023-04-07T08:59:18.937Z,14.33
2023-04-07T09:02:23.737Z,14.00
2023-04-07T09:05:27.621Z,15.33
2023-04-07T09:08:31.210Z,19.67
2023-04-07T09:11:37.864Z,18.00
2023-04-07T09:14:43.199Z,20.67
2023-04-07T09:17:47.742Z,18.00
2023-04-07T09:21:02.296Z,19.00
2023-04-07T09:24:23.111Z,14.00
2023-04-07T09:27:31.619Z,14.00
2023-04-07T09:30:38.362Z,12.50
2023-04-07T09:33:41.877Z,13.00
2023-04-07T09:36:45.644Z,13.00
2023-04-07T09:39:54.240Z,18.75
2023-04-07T09:42:58.747Z,12.25
2023-04-07T09:46:14.329Z,16.50
2023-04-07T09:49:20.297Z,18.00
2023-04-07T09:52:28.079Z,15.33
2023-04-07T09:55:32.531Z,15.75
2023-04-07T09:58:36.533Z,11.50
2023-04-07T10:01:44.734Z,10.00
2023-04-07T10:04:48.270Z,5.00
2023-04-07T10:07:54.748Z,12.25
2023-04-07T10:10:58.963Z,15.75
2023-04-07T10:14:02.769Z,10.50
2023-04-07T10:17:11.074Z,6.50
2023-04-07T10:20:16.558Z,14.75
2023-04-07T10:23:23.430Z,12.00
2023-04-07T10:26:31.721Z,12.75
2023-04-07T10:29:44.087Z,5.50
2023-04-07T10:32:50.550Z,12.00
2023-04-07T10:36:08.761Z,12.50
2023-04-07T10:39:22.414Z,10.00
2023-04-07T10:42:49.540Z,8.25
2023-04-07T10:46:01.077Z,12.75
2023-04-07T10:49:16.334Z,30.00
2023-04-07T10:52:27.939Z,13.50
2023-04-07T10:55:40.544Z,10.67
2023-04-07T10:58:47.606Z,49.00
2023-04-07T11:01:51.349Z,21.33
2023-04-07T11:04:56.437Z,21.67
2023-04-07T11:08:02.992Z,18.33
2023-04-07T11:11:11.771Z,18.75
2023-04-07T11:14:28.626Z,15.50
2023-04-07T11:17:32.164Z,12.50
2023-04-07T11:20:46.225Z,15.00
2023-04-07T11:23:50.174Z,17.50
2023-04-07T11:26:53.737Z,14.00
2023-04-07T11:29:58.325Z,25.00
2023-04-07T11:33:01.939Z,16.67
2023-04-07T11:36:09.672Z,17.50
2023-04-07T11:39:21.545Z,11.75
2023-04-07T11:42:35.196Z,14.50
2023-04-07T11:45:38.586Z,7.25
2023-04-07T11:48:44.246Z,17.75
2023-04-07T11:51:48.934Z,14.50
2023-04-07T11:54:52.326Z,29.00
2023-04-07T11:57:55.989Z,8.67
2023-04-07T12:01:05.101Z,27.00
2023-04-07T12:04:08.751Z,33.00
2023-04-07T12:07:13.789Z,13.50
2023-04-07T12:10:21.219Z,17.75
2023-04-07T12:13:24.705Z,10.00
2023-04-07T12:16:28.149Z,10.50
2023-04-07T12:19:34.986Z,12.50
2023-04-07T12:22:39.660Z,18.00
2023-04-07T12:25:43.096Z,18.00
2023-04-07T12:28:46.581Z,13.50
2023-04-07T12:31:51.441Z,13.25
2023-04-07T12:34:54.975Z,17.50
2023-04-07T12:37:59.875Z,15.50
2023-04-07T12:41:03.819Z,10.00
2023-04-07T12:44:07.484Z,11.50
2023-04-07T12:47:12.438Z,14.00
2023-04-07T12:50:16.180Z,10.00
2023-04-07T12:53:21.064Z,12.00
2023-04-07T12:56:24.406Z,6.00
2023-04-07T12:59:27.743Z,13.00
2023-04-07T13:02:31.280Z,16.00
2023-04-07T13:05:35.710Z,15.00
2023-04-07T13:08:41.156Z,17.50
2023-04-07T13:11:44.528Z,9.75
2023-04-07T13:14:59.230Z,15.00
2023-04-07T13:18:04.406Z,6.50
2023-04-07T13:21:33.765Z,28.00
2023-04-07T13:24:33.064Z,23.00
2023-04-07T13:27:36.388Z,19.00
2023-04-07T13:30:41.789Z,30.33
2023-04-07T13:33:45.456Z,20.50
2023-04-07T13:36:48.787Z,25.00
2023-04-07T13:39:53.612Z,24.50
2023-04-07T13:42:57.499Z,34.00
2023-04-07T13:46:00.986Z,18.00
2023-04-07T13:49:04.302Z,20.00
2023-04-07T13:52:07.741Z,22.25
2023-04-07T13:55:13.578Z,13.00
2023-04-07T13:58:16.965Z,6.25
2023-04-07T14:01:20.486Z,8.00
2023-04-07T14:04:24.608Z,7.00
2023-04-07T14:07:27.927Z,9.00
2023-04-07T14:10:33.511Z,18.25
2023-04-07T14:13:36.935Z,11.50
2023-04-07T14:16:40.477Z,13.25
2023-04-07T14:19:43.846Z,9.00
2023-04-07T14:22:47.411Z,11.00
2023-04-07T14:25:52.412Z,11.25
2023-04-07T14:28:55.796Z,9.00
2023-04-07T14:31:59.176Z,8.50
2023-04-07T14:35:02.580Z,16.00
2023-04-07T14:38:06.774Z,7.00
2023-04-07T14:41:12.804Z,7.00
2023-04-07T14:44:16.909Z,10.00
2023-04-07T14:47:21.238Z,9.50
2023-04-07T14:50:25.127Z,8.00
2023-04-07T14:53:29.747Z,10.50
2023-04-07T14:56:36.527Z,9.00
2023-04-07T14:59:40.095Z,6.00
2023-04-07T15:02:43.737Z,9.75
2023-04-07T15:05:47.538Z,8.25
2023-04-07T15:08:51.022Z,8.75
2023-04-07T15:11:57.800Z,8.00
2023-04-07T15:15:02.443Z,5.00
2023-04-07T15:18:05.917Z,6.00
2023-04-07T15:21:12.479Z,7.00
2023-04-07T15:24:16.712Z,9.75
2023-04-07T15:27:21.791Z,10.50
2023-04-07T15:30:25.556Z,12.25
2023-04-07T15:33:29.339Z,9.75
2023-04-07T15:36:32.947Z,23.00
2023-04-07T15:39:36.499Z,26.25
2023-04-07T15:42:42.086Z,16.25
2023-04-07T15:45:46.664Z,34.00
2023-04-07T15:48:51.989Z,35.33
2023-04-07T15:51:56.393Z,62.50
2023-04-07T15:54:59.747Z,52.00
2023-04-07T15:58:05.542Z,59.75
2023-04-07T16:01:09.876Z,60.67
2023-04-07T16:04:13.569Z,28.50
2023-04-07T16:07:16.989Z,20.25
2023-04-07T16:10:20.568Z,19.75
2023-04-07T16:13:25.685Z,21.00
2023-04-07T16:16:29.403Z,14.00
2023-04-07T16:19:32.968Z,17.50
2023-04-07T16:22:37.500Z,21.25
2023-04-07T16:25:42.492Z,15.00
2023-04-07T16:28:47.775Z,13.00
2023-04-07T16:31:51.353Z,11.00
2023-04-07T16:34:54.888Z,10.25
2023-04-07T16:38:01.746Z,12.25
2023-04-07T16:41:05.158Z,14.00
2023-04-07T16:44:11.286Z,18.25
2023-04-07T16:47:14.754Z,9.50
2023-04-07T16:50:18.505Z,13.00
2023-04-07T16:53:22.264Z,9.00
2023-04-07T16:56:26.441Z,13.00
2023-04-07T16:59:32.420Z,20.00
2023-04-07T17:02:35.950Z,19.25
2023-04-07T17:05:39.485Z,13.00
2023-04-07T17:08:42.852Z,9.75
2023-04-07T17:11:46.315Z,13.00
2023-04-07T17:14:51.442Z,10.00
2023-04-07T17:17:54.872Z,13.50
2023-04-07T17:20:58.239Z,15.75
2023-04-07T17:24:01.694Z,13.00
2023-04-07T17:27:05.219Z,13.00
2023-04-07T17:30:11.157Z,11.00
2023-04-07T17:33:14.903Z,9.25
2023-04-07T17:36:18.761Z,9.50
2023-04-07T17:39:22.388Z,2.00
2023-04-07T17:42:25.864Z,11.00
2023-04-07T17:45:31.189Z,9.50
2023-04-07T17:48:35.271Z,12.50
2023-04-07T17:51:38.683Z,13.00
2023-04-07T17:54:42.646Z,14.00
2023-04-07T17:57:46.185Z,11.50
2023-04-07T18:00:51.149Z,14.75
2023-04-07T18:03:55.765Z,15.50
2023-04-07T18:06:59.283Z,11.50
2023-04-07T18:10:03.408Z,16.00
2023-04-07T18:13:07.296Z,9.00
2023-04-07T18:16:18.124Z,12.00
2023-04-07T18:19:23.984Z,15.00
2023-04-07T18:22:28.244Z,15.50
2023-04-07T18:25:31.656Z,9.00
2023-04-07T18:28:36.647Z,13.00
2023-04-07T18:31:43.325Z,16.75
2023-04-07T18:34:48.537Z,17.00
2023-04-07T18:37:52.193Z,13.00
2023-04-07T18:40:55.681Z,16.00
2023-04-07T18:43:59.167Z,18.00
2023-04-07T18:47:04.054Z,18.00
2023-04-07T18:50:08.636Z,21.25
2023-04-07T18:53:16.006Z,19.00
2023-04-07T18:56:21.346Z,13.25
2023-04-07T18:59:26.348Z,12.50
2023-04-07T19:02:33.766Z,12.50
2023-04-07T19:05:39.008Z,13.50
2023-04-07T19:08:42.703Z,14.50
2023-04-07T19:11:46.279Z,12.75
2023-04-07T19:14:49.660Z,15.00
2023-04-07T19:17:54.714Z,15.75
2023-04-07T19:20:58.323Z,15.50
2023-04-07T19:24:01.641Z,19.00
2023-04-07T19:27:05.580Z,16.00
2023-04-07T19:30:10.288Z,14.50
2023-04-07T19:33:15.062Z,16.00
2023-04-07T19:36:18.771Z,16.00
2023-04-07T19:39:23.730Z,15.50
2023-04-07T19:42:29.375Z,16.00
2023-04-07T19:45:33.175Z,19.00
2023-04-07T19:48:38.183Z,15.75
2023-04-07T19:51:43.229Z,18.25
2023-04-07T19:54:46.830Z,21.00
2023-04-07T19:57:50.204Z,12.25
2023-04-07T20:00:54.361Z,12.50
2023-04-07T20:03:59.377Z,22.00
2023-04-07T20:07:02.814Z,17.50
2023-04-07T20:10:06.933Z,16.50
2023-04-07T20:13:11.215Z,25.00
2023-04-07T20:16:15.239Z,20.50
2023-04-07T20:19:20.116Z,9.75
2023-04-07T20:22:24.466Z,17.50
2023-04-07T20:25:27.935Z,18.50
2023-04-07T20:28:31.856Z,22.25
2023-04-07T20:31:35.328Z,20.00
2023-04-07T20:34:40.103Z,14.75
2023-04-07T20:37:44.557Z,23.00
2023-04-07T20:40:48.052Z,23.50
2023-04-07T20:43:52.829Z,18.25
2023-04-07T20:46:56.493Z,21.00
2023-04-07T20:50:01.373Z,25.50
2023-04-07T20:53:04.654Z,23.50
2023-04-07T20:56:08.482Z,22.50
2023-04-07T20:59:11.940Z,27.50
2023-04-07T21:02:16.224Z,20.50
2023-04-07T21:05:21.198Z,31.00
2023-04-07T21:08:24.774Z,28.00
2023-04-07T21:11:28.339Z,26.00
2023-04-07T21:14:32.358Z,28.50
2023-04-07T21:17:35.908Z,26.50
2023-04-07T21:20:41.334Z,26.00
2023-04-07T21:23:44.888Z,18.25
2023-04-07T21:26:48.298Z,20.50
2023-04-07T21:29:51.626Z,21.00
2023-04-07T21:32:55.048Z,13.00
2023-04-07T21:36:01.056Z,13.25
2023-04-07T21:39:04.534Z,15.00
2023-04-07T21:42:07.976Z,14.00
2023-04-07T21:45:12.421Z,9.00
2023-04-07T21:48:20.914Z,14.00
2023-04-07T21:51:25.878Z,9.50
2023-04-07T21:54:29.308Z,12.75
2023-04-07T21:57:32.615Z,15.00
2023-04-07T22:00:36.696Z,12.50
2023-04-07T22:03:40.839Z,6.50
2023-04-07T22:06:46.192Z,14.00
2023-04-07T22:09:49.659Z,12.75
2023-04-07T22:12:53.261Z,10.50
2023-04-07T22:15:57.202Z,9.50
2023-04-07T22:19:00.935Z,9.50
2023-04-07T22:22:08.260Z,12.00
2023-04-07T22:25:13.325Z,9.50
2023-04-07T22:28:17.316Z,6.50
2023-04-07T22:31:25.591Z,15.75
2023-04-07T22:34:31.149Z,15.00
2023-04-07T22:37:38.575Z,16.25
2023-04-07T22:40:42.150Z,14.50
2023-04-07T22:43:45.600Z,15.25
2023-04-07T22:46:49.585Z,16.50
2023-04-07T22:49:53.321Z,10.00
2023-04-07T22:52:58.948Z,18.75
2023-04-07T22:56:02.817Z,16.00
2023-04-07T22:59:06.392Z,16.00
2023-04-07T23:02:10.150Z,16.00
2023-04-07T23:05:14.037Z,20.00
2023-04-07T23:08:18.992Z,15.25
2023-04-07T23:11:24.446Z,11.50
2023-04-07T23:14:28.043Z,14.50
2023-04-07T23:17:32.358Z,0.00
2023-04-07T23:20:35.713Z,12.00
2023-04-07T23:23:42.318Z,11.00
2023-04-07T23:26:50.494Z,9.75
2023-04-07T23:29:54.127Z,6.25
2023-04-07T23:33:00.030Z,12.50
2023-04-07T23:36:05.492Z,6.33
2023-04-07T23:39:10.346Z,9.00
2023-04-07T23:42:16.825Z,10.00
2023-04-07T23:45:20.806Z,9.75
2023-04-07T23:48:24.516Z,6.75
2023-04-07T23:51:29.317Z,5.75
2023-04-07T23:54:36.214Z,8.50
2023-04-07T23:57:39.648Z,6.25
